aviador You're here:

CYRQ Decoded Metar

TROIS RIVIERE in CANADA
Report Time2018-07-20 06:00:00
UTC Time2018-07-20 06:44:23
Flight Rules vfr VFR
Wind220° at 03 kt
W.Decomp.*RWY 23: 3.0 kt HW 0.3 kt RCW
W.Rank220° ranks 2
Current wind is below 220° avg. (9.1)
Visibility9999 m
Phenomena:N/A
Clouds:N/A
Expected CloudBase > 800 ft AGL from Temp-Dew spread
CeilingNone
Temp16°C (ISA +1)
Dew Point14°C (88% RH)
QNH1018 hPa
Density Alt407 ft
Elevation198 ft
Report Wrong Elevation
Raw Report
METAR CYRQ 200600Z AUTO 22003KT 9SM CLR 16/14 A3006 RMK SLP181 DENSITY ALT 200FT=

Extra information for CYRQ:More info

Metar Taf Metar & Taf Last 4 Metars F.Rules Stats Wind Profile Meteogram Temp Stats Airport Information Weather charts Add Link Nearby VenuesMetar ALERT Operation Metar Decoded Social comments